sensor_id;sensor_type;location;lat;lon;timestamp;pressure;altitude;pressure_sealevel;temperature;humidity
31403;BME280;18039;52.188;21.024;2023-03-15T00:01:19;75372.78;;;-141.45;98.07
31403;BME280;18039;52.188;21.024;2023-03-15T00:03:47;75366.72;;;-141.45;97.88
31403;BME280;18039;52.188;21.024;2023-03-15T00:06:15;75366.72;;;-141.45;97.87
31403;BME280;18039;52.188;21.024;2023-03-15T00:08:42;75364.69;;;-141.45;97.76
31403;BME280;18039;52.188;21.024;2023-03-15T00:11:15;75366.72;;;-141.45;97.53
31403;BME280;18039;52.188;21.024;2023-03-15T00:13:43;75366.72;;;-141.45;97.36
31403;BME280;18039;52.188;21.024;2023-03-15T00:16:11;75364.69;;;-141.45;96.69
31403;BME280;18039;52.188;21.024;2023-03-15T00:18:44;75356.59;;;-141.45;96.87
31403;BME280;18039;52.188;21.024;2023-03-15T00:21:13;75356.59;;;-141.45;96.15
31403;BME280;18039;52.188;21.024;2023-03-15T00:23:40;75352.53;;;-141.45;95.63
31403;BME280;18039;52.188;21.024;2023-03-15T00:26:07;75344.44;;;-141.45;95.32
31403;BME280;18039;52.188;21.024;2023-03-15T00:28:35;75348.47;;;-141.45;95.25
31403;BME280;18039;52.188;21.024;2023-03-15T00:31:28;75350.50;;;-141.45;94.82
31403;BME280;18039;52.188;21.024;2023-03-15T00:33:56;75352.53;;;-141.45;94.99
31403;BME280;18039;52.188;21.024;2023-03-15T00:36:23;75354.56;;;-141.45;94.72
31403;BME280;18039;52.188;21.024;2023-03-15T00:38:53;75340.38;;;-141.45;94.11
31403;BME280;18039;52.188;21.024;2023-03-15T00:41:22;75324.16;;;-141.45;92.79
31403;BME280;18039;52.188;21.024;2023-03-15T00:43:49;75324.16;;;-141.45;92.01
31403;BME280;18039;52.188;21.024;2023-03-15T00:46:18;75332.28;;;-141.45;91.86
31403;BME280;18039;52.188;21.024;2023-03-15T00:48:47;75368.75;;;-141.45;91.66
31403;BME280;18039;52.188;21.024;2023-03-15T00:51:17;75421.44;;;-141.45;89.12
31403;BME280;18039;52.188;21.024;2023-03-15T00:53:46;75502.50;;;-141.45;86.85
31403;BME280;18039;52.188;21.024;2023-03-15T00:56:19;75607.88;;;-141.45;85.06
31403;BME280;18039;52.188;21.024;2023-03-15T00:58:48;75697.03;;;-141.45;85.66
31403;BME280;18039;52.188;21.024;2023-03-15T01:01:27;75818.63;;;-141.45;86.54
31403;BME280;18039;52.188;21.024;2023-03-15T01:03:57;75891.59;;;-141.45;87.39
31403;BME280;18039;52.188;21.024;2023-03-15T01:06:26;75907.81;;;-141.45;88.88
31403;BME280;18039;52.188;21.024;2023-03-15T01:08:54;75952.38;;;-141.45;90.11
31403;BME280;18039;52.188;21.024;2023-03-15T01:11:25;75990.91;;;-141.45;91.14
31403;BME280;18039;52.188;21.024;2023-03-15T01:13:55;76005.09;;;-141.45;90.00
31403;BME280;18039;52.188;21.024;2023-03-15T01:16:24;76061.84;;;-141.45;90.87
31403;BME280;18039;52.188;21.024;2023-03-15T01:18:52;76088.19;;;-141.45;91.44
31403;BME280;18039;52.188;21.024;2023-03-15T01:21:22;76108.44;;;-141.45;93.18
31403;BME280;18039;52.188;21.024;2023-03-15T01:23:50;76134.78;;;-141.45;94.25
31403;BME280;18039;52.188;21.024;2023-03-15T01:26:20;76215.88;;;-141.45;96.08
31403;BME280;18039;52.188;21.024;2023-03-15T01:28:48;76240.19;;;-141.45;97.83
31403;BME280;18039;52.188;21.024;2023-03-15T01:31:19;76272.63;;;-141.45;99.03
31403;BME280;18039;52.188;21.024;2023-03-15T01:33:47;76296.94;;;-141.45;100.00
31403;BME280;18039;52.188;21.024;2023-03-15T01:36:14;76313.16;;;-141.45;100.00
31403;BME280;18039;52.188;21.024;2023-03-15T01:38:42;76333.44;;;-141.45;100.00
31403;BME280;18039;52.188;21.024;2023-03-15T01:41:13;76341.53;;;-141.45;100.00
31403;BME280;18039;52.188;21.024;2023-03-15T01:43:42;76357.75;;;-141.45;100.00
31403;BME280;18039;52.188;21.024;2023-03-15T01:46:23;76357.75;;;-141.45;100.00
31403;BME280;18039;52.188;21.024;2023-03-15T01:51:39;76373.97;;;-141.45;100.00
31403;BME280;18039;52.188;21.024;2023-03-15T01:54:15;76398.28;;;-141.45;100.00
31403;BME280;18039;52.188;21.024;2023-03-15T01:56:49;76406.41;;;-141.45;100.00
31403;BME280;18039;52.188;21.024;2023-03-15T01:59:23;76414.50;;;-141.45;100.00
31403;BME280;18039;52.188;21.024;2023-03-15T02:01:55;76426.69;;;-141.45;100.00
31403;BME280;18039;52.188;21.024;2023-03-15T02:04:28;76463.16;;;-141.45;99.17
31403;BME280;18039;52.188;21.024;2023-03-15T02:07:00;76465.19;;;-141.45;99.61
31403;BME280;18039;52.188;21.024;2023-03-15T02:09:36;76475.31;;;-141.45;99.26
31403;BME280;18039;52.188;21.024;2023-03-15T02:12:08;76479.38;;;-141.45;98.97
31403;BME280;18039;52.188;21.024;2023-03-15T02:14:37;76499.66;;;-141.45;97.91
31403;BME280;18039;52.188;21.024;2023-03-15T02:17:06;76495.59;;;-141.45;97.67
31403;BME280;18039;52.188;21.024;2023-03-15T02:19:44;76505.72;;;-141.45;96.04
31403;BME280;18039;52.188;21.024;2023-03-15T02:25:05;76515.88;;;-141.45;95.77
31403;BME280;18039;52.188;21.024;2023-03-15T02:27:36;76511.81;;;-141.45;96.15
31403;BME280;18039;52.188;21.024;2023-03-15T02:30:03;76503.69;;;-141.45;94.87
31403;BME280;18039;52.188;21.024;2023-03-15T02:32:31;76515.88;;;-141.45;95.10
31403;BME280;18039;52.188;21.024;2023-03-15T02:34:58;76519.91;;;-141.45;93.73
31403;BME280;18039;52.188;21.024;2023-03-15T02:37:26;76526.00;;;-141.45;92.27
31403;BME280;18039;52.188;21.024;2023-03-15T02:39:53;76528.03;;;-141.45;91.38
31403;BME280;18039;52.188;21.024;2023-03-15T02:42:20;76544.25;;;-141.45;90.61
31403;BME280;18039;52.188;21.024;2023-03-15T02:44:51;76548.31;;;-141.45;90.65
31403;BME280;18039;52.188;21.024;2023-03-15T02:47:24;76544.25;;;-141.45;89.45
31403;BME280;18039;52.188;21.024;2023-03-15T02:49:53;76556.41;;;-141.45;89.01
31403;BME280;18039;52.188;21.024;2023-03-15T02:52:21;76556.41;;;-141.45;88.20
31403;BME280;18039;52.188;21.024;2023-03-15T02:54:49;76564.50;;;-141.45;87.49
31403;BME280;18039;52.188;21.024;2023-03-15T02:57:18;76560.47;;;-141.45;88.34
31403;BME280;18039;52.188;21.024;2023-03-15T02:59:47;76566.53;;;-141.45;88.73
31403;BME280;18039;52.188;21.024;2023-03-15T03:02:17;76564.50;;;-141.45;88.61
31403;BME280;18039;52.188;21.024;2023-03-15T03:04:45;76552.34;;;-141.45;88.43
31403;BME280;18039;52.188;21.024;2023-03-15T03:07:12;76562.50;;;-141.45;88.47
31403;BME280;18039;52.188;21.024;2023-03-15T03:09:50;76564.50;;;-141.45;88.55
31403;BME280;18039;52.188;21.024;2023-03-15T03:12:19;76576.69;;;-141.45;88.06
31403;BME280;18039;52.188;21.024;2023-03-15T03:14:48;76578.69;;;-141.45;88.58
31403;BME280;18039;52.188;21.024;2023-03-15T03:17:19;76572.63;;;-141.45;87.52
31403;BME280;18039;52.188;21.024;2023-03-15T03:19:46;76576.69;;;-141.45;88.17
31403;BME280;18039;52.188;21.024;2023-03-15T03:22:15;76588.84;;;-141.45;87.60
31403;BME280;18039;52.188;21.024;2023-03-15T03:24:44;76576.69;;;-141.45;87.62
31403;BME280;18039;52.188;21.024;2023-03-15T03:27:14;76580.72;;;-141.45;87.46
31403;BME280;18039;52.188;21.024;2023-03-15T03:29:44;76592.91;;;-141.45;86.66
31403;BME280;18039;52.188;21.024;2023-03-15T03:32:11;76588.84;;;-141.45;87.36
31403;BME280;18039;52.188;21.024;2023-03-15T03:34:39;76590.88;;;-141.45;87.24
31403;BME280;18039;52.188;21.024;2023-03-15T03:37:07;76605.06;;;-141.45;87.94
31403;BME280;18039;52.188;21.024;2023-03-15T03:39:53;76609.09;;;-141.45;89.06
31403;BME280;18039;52.188;21.024;2023-03-15T03:42:21;76609.09;;;-141.45;88.23
31403;BME280;18039;52.188;21.024;2023-03-15T03:44:48;76605.06;;;-141.45;88.45
31403;BME280;18039;52.188;21.024;2023-03-15T03:47:17;76613.16;;;-141.45;88.11
31403;BME280;18039;52.188;21.024;2023-03-15T03:49:45;76613.16;;;-141.45;89.10
31403;BME280;18039;52.188;21.024;2023-03-15T03:52:12;76629.38;;;-141.45;89.15
31403;BME280;18039;52.188;21.024;2023-03-15T03:54:39;76633.44;;;-141.45;89.68
31403;BME280;18039;52.188;21.024;2023-03-15T03:57:09;76625.31;;;-141.45;88.91
31403;BME280;18039;52.188;21.024;2023-03-15T03:59:38;76621.28;;;-141.45;89.08
31403;BME280;18039;52.188;21.024;2023-03-15T04:02:05;76629.38;;;-141.45;89.00
31403;BME280;18039;52.188;21.024;2023-03-15T04:04:34;76629.38;;;-141.45;88.47
31403;BME280;18039;52.188;21.024;2023-03-15T04:07:02;76625.31;;;-141.45;88.91
31403;BME280;18039;52.188;21.024;2023-03-15T04:09:35;76615.19;;;-141.45;87.85
31403;BME280;18039;52.188;21.024;2023-03-15T04:12:05;76619.25;;;-141.45;87.95
31403;BME280;18039;52.188;21.024;2023-03-15T04:14:34;76637.50;;;-141.45;88.31
31403;BME280;18039;52.188;21.024;2023-03-15T04:17:03;76639.53;;;-141.45;89.00
31403;BME280;18039;52.188;21.024;2023-03-15T04:19:31;76639.53;;;-141.45;88.48
31403;BME280;18039;52.188;21.024;2023-03-15T04:21:59;76649.66;;;-141.45;88.93
31403;BME280;18039;52.188;21.024;2023-03-15T04:24:55;76649.66;;;-141.45;89.43
31403;BME280;18039;52.188;21.024;2023-03-15T04:27:36;76649.66;;;-141.45;89.70
31403;BME280;18039;52.188;21.024;2023-03-15T04:30:20;76657.75;;;-141.45;88.88
31403;BME280;18039;52.188;21.024;2023-03-15T04:33:11;76669.94;;;-141.45;89.16
31403;BME280;18039;52.188;21.024;2023-03-15T04:36:12;76669.94;;;-141.45;88.54
31403;BME280;18039;52.188;21.024;2023-03-15T04:39:07;76678.03;;;-141.45;87.87
31403;BME280;18039;52.188;21.024;2023-03-15T04:41:55;76678.03;;;-141.45;86.76
31403;BME280;18039;52.188;21.024;2023-03-15T04:45:00;76690.19;;;-141.45;87.57
31403;BME280;18039;52.188;21.024;2023-03-15T04:47:48;76690.19;;;-141.45;86.97
31403;BME280;18039;52.188;21.024;2023-03-15T04:50:34;76686.13;;;-141.45;87.26
31403;BME280;18039;52.188;21.024;2023-03-15T04:53:31;76678.03;;;-141.45;87.13
31403;BME280;18039;52.188;21.024;2023-03-15T04:56:25;76690.19;;;-141.45;86.81
31403;BME280;18039;52.188;21.024;2023-03-15T04:59:12;76698.31;;;-141.45;86.03
31403;BME280;18039;52.188;21.024;2023-03-15T05:01:58;76712.50;;;-141.45;86.20
31403;BME280;18039;52.188;21.024;2023-03-15T05:04:34;76700.34;;;-141.45;84.48
31403;BME280;18039;52.188;21.024;2023-03-15T05:07:37;76710.47;;;-141.45;84.32
31403;BME280;18039;52.188;21.024;2023-03-15T05:10:31;76694.25;;;-141.45;84.06
31403;BME280;18039;52.188;21.024;2023-03-15T05:13:18;76692.22;;;-141.45;81.97
31403;BME280;18039;52.188;21.024;2023-03-15T05:16:11;76712.50;;;-141.45;81.75
31403;BME280;18039;52.188;21.024;2023-03-15T05:18:49;76730.75;;;-141.45;81.78
31403;BME280;18039;52.188;21.024;2023-03-15T05:21:44;76734.78;;;-141.45;81.62
31403;BME280;18039;52.188;21.024;2023-03-15T05:24:29;76738.84;;;-141.45;81.51
31403;BME280;18039;52.188;21.024;2023-03-15T05:27:26;76746.97;;;-141.45;82.63
31403;BME280;18039;52.188;21.024;2023-03-15T05:30:10;76738.84;;;-141.45;82.02
31403;BME280;18039;52.188;21.024;2023-03-15T05:33:03;76738.84;;;-141.45;82.98
31403;BME280;18039;52.188;21.024;2023-03-15T05:35:31;76742.91;;;-141.45;82.84
31403;BME280;18039;52.188;21.024;2023-03-15T05:38:04;76742.91;;;-141.45;83.73
31403;BME280;18039;52.188;21.024;2023-03-15T05:40:45;76734.78;;;-141.45;83.60
31403;BME280;18039;52.188;21.024;2023-03-15T05:43:31;76746.97;;;-141.45;83.36
31403;BME280;18039;52.188;21.024;2023-03-15T05:46:17;76742.91;;;-141.45;81.18
31403;BME280;18039;52.188;21.024;2023-03-15T05:48:57;76759.13;;;-141.45;80.06
31403;BME280;18039;52.188;21.024;2023-03-15T05:51:36;76761.16;;;-141.45;80.34
31403;BME280;18039;52.188;21.024;2023-03-15T05:54:04;76771.28;;;-141.45;80.42
31403;BME280;18039;52.188;21.024;2023-03-15T05:56:50;76771.28;;;-141.45;79.24
31403;BME280;18039;52.188;21.024;2023-03-15T05:59:38;76767.22;;;-141.45;79.04
31403;BME280;18039;52.188;21.024;2023-03-15T06:02:20;76775.34;;;-141.45;79.87
31403;BME280;18039;52.188;21.024;2023-03-15T06:05:08;76773.31;;;-141.45;78.81
31403;BME280;18039;52.188;21.024;2023-03-15T06:07:36;76779.38;;;-141.45;79.12
31403;BME280;18039;52.188;21.024;2023-03-15T06:10:05;76785.47;;;-141.45;79.74
31403;BME280;18039;52.188;21.024;2023-03-15T06:12:33;76791.56;;;-141.45;79.08
31403;BME280;18039;52.188;21.024;2023-03-15T06:15:00;76787.50;;;-141.45;79.34
31403;BME280;18039;52.188;21.024;2023-03-15T06:17:28;76795.59;;;-141.45;78.94
31403;BME280;18039;52.188;21.024;2023-03-15T06:19:55;76807.78;;;-141.45;79.41
31403;BME280;18039;52.188;21.024;2023-03-15T06:22:22;76807.78;;;-141.45;79.56
31403;BME280;18039;52.188;21.024;2023-03-15T06:24:55;76791.56;;;-141.45;80.45
31403;BME280;18039;52.188;21.024;2023-03-15T06:27:23;76799.66;;;-141.45;80.42
31403;BME280;18039;52.188;21.024;2023-03-15T06:29:53;76797.63;;;-141.45;80.67
31403;BME280;18039;52.188;21.024;2023-03-15T06:32:22;76799.66;;;-141.45;80.45
31403;BME280;18039;52.188;21.024;2023-03-15T06:34:50;76799.66;;;-141.45;80.74
31403;BME280;18039;52.188;21.024;2023-03-15T06:37:18;76803.72;;;-141.45;80.84
31403;BME280;18039;52.188;21.024;2023-03-15T06:40:03;76803.72;;;-141.45;80.46
31403;BME280;18039;52.188;21.024;2023-03-15T06:42:33;76815.88;;;-141.45;76.97
31403;BME280;18039;52.188;21.024;2023-03-15T06:45:01;76819.94;;;-141.45;78.46
31403;BME280;18039;52.188;21.024;2023-03-15T06:47:29;76832.09;;;-141.45;78.01
31403;BME280;18039;52.188;21.024;2023-03-15T06:49:56;76828.03;;;-141.45;78.07
31403;BME280;18039;52.188;21.024;2023-03-15T06:52:23;76828.03;;;-141.45;78.42
31403;BME280;18039;52.188;21.024;2023-03-15T06:54:51;76826.00;;;-141.45;79.28
31403;BME280;18039;52.188;21.024;2023-03-15T06:57:18;76819.94;;;-141.45;76.81
31403;BME280;18039;52.188;21.024;2023-03-15T06:59:46;76840.22;;;-141.45;76.72
31403;BME280;18039;52.188;21.024;2023-03-15T07:02:14;76852.38;;;-141.45;77.50
31403;BME280;18039;52.188;21.024;2023-03-15T07:04:43;76848.31;;;-141.45;78.49
31403;BME280;18039;52.188;21.024;2023-03-15T07:07:11;76838.19;;;-141.45;77.76
31403;BME280;18039;52.188;21.024;2023-03-15T07:09:39;76815.88;;;-141.45;76.49
31403;BME280;18039;52.188;21.024;2023-03-15T07:12:07;76807.78;;;-141.45;77.06
31403;BME280;18039;52.188;21.024;2023-03-15T07:14:35;76799.66;;;-141.45;74.86
31403;BME280;18039;52.188;21.024;2023-03-15T07:17:03;76803.72;;;-141.45;75.55
31403;BME280;18039;52.188;21.024;2023-03-15T07:19:30;76807.78;;;-141.45;75.67
31403;BME280;18039;52.188;21.024;2023-03-15T07:21:57;76811.81;;;-141.45;75.66
31403;BME280;18039;52.188;21.024;2023-03-15T07:24:25;76824.00;;;-141.45;77.03
31403;BME280;18039;52.188;21.024;2023-03-15T07:26:53;76815.88;;;-141.45;76.45
31403;BME280;18039;52.188;21.024;2023-03-15T07:29:23;76828.03;;;-141.45;75.34
31403;BME280;18039;52.188;21.024;2023-03-15T07:31:52;76856.44;;;-141.45;74.74
31403;BME280;18039;52.188;21.024;2023-03-15T07:34:20;76848.31;;;-141.45;75.75
31403;BME280;18039;52.188;21.024;2023-03-15T07:36:47;76852.38;;;-141.45;75.09
31403;BME280;18039;52.188;21.024;2023-03-15T07:39:15;76846.28;;;-141.45;76.22
31403;BME280;18039;52.188;21.024;2023-03-15T07:41:42;76842.22;;;-141.45;75.93
31403;BME280;18039;52.188;21.024;2023-03-15T07:44:20;76844.25;;;-141.45;75.09
31403;BME280;18039;52.188;21.024;2023-03-15T07:46:47;76836.16;;;-141.45;75.76
31403;BME280;18039;52.188;21.024;2023-03-15T07:49:15;76852.38;;;-141.45;73.78
31403;BME280;18039;52.188;21.024;2023-03-15T07:51:43;76860.47;;;-141.45;75.02
31403;BME280;18039;52.188;21.024;2023-03-15T07:54:10;76870.63;;;-141.45;74.03
31403;BME280;18039;52.188;21.024;2023-03-15T07:56:37;76884.81;;;-141.45;74.50
31403;BME280;18039;52.188;21.024;2023-03-15T07:59:04;76868.59;;;-141.45;74.22
31403;BME280;18039;52.188;21.024;2023-03-15T08:01:31;76868.59;;;-141.45;74.11
31403;BME280;18039;52.188;21.024;2023-03-15T08:04:00;76860.47;;;-141.45;72.74
31403;BME280;18039;52.188;21.024;2023-03-15T08:06:27;76860.47;;;-141.45;73.07
31403;BME280;18039;52.188;21.024;2023-03-15T08:08:54;76852.38;;;-141.45;71.87
31403;BME280;18039;52.188;21.024;2023-03-15T08:11:21;76856.44;;;-141.45;72.31
31403;BME280;18039;52.188;21.024;2023-03-15T08:13:49;76844.25;;;-141.45;72.46
31403;BME280;18039;52.188;21.024;2023-03-15T08:16:16;76832.09;;;-141.45;72.02
31403;BME280;18039;52.188;21.024;2023-03-15T08:18:43;76819.94;;;-141.45;72.25
31403;BME280;18039;52.188;21.024;2023-03-15T08:21:11;76848.31;;;-141.45;71.19
31403;BME280;18039;52.188;21.024;2023-03-15T08:23:38;76860.47;;;-141.45;71.69
31403;BME280;18039;52.188;21.024;2023-03-15T08:26:06;76870.63;;;-141.45;71.54
31403;BME280;18039;52.188;21.024;2023-03-15T08:28:33;76860.47;;;-141.45;70.38
31403;BME280;18039;52.188;21.024;2023-03-15T08:31:05;76852.38;;;-141.45;70.09
31403;BME280;18039;52.188;21.024;2023-03-15T08:33:32;76844.25;;;-141.45;68.96
31403;BME280;18039;52.188;21.024;2023-03-15T08:36:00;76842.22;;;-141.45;69.75
31403;BME280;18039;52.188;21.024;2023-03-15T08:38:27;76852.38;;;-141.45;69.38
31403;BME280;18039;52.188;21.024;2023-03-15T08:40:56;76856.44;;;-141.45;68.18
31403;BME280;18039;52.188;21.024;2023-03-15T08:43:23;76868.59;;;-141.45;69.00
31403;BME280;18039;52.188;21.024;2023-03-15T08:45:50;76856.44;;;-141.45;69.70
31403;BME280;18039;52.188;21.024;2023-03-15T08:48:28;76840.22;;;-141.45;68.78
31403;BME280;18039;52.188;21.024;2023-03-15T08:51:00;76838.19;;;-141.45;68.26
31403;BME280;18039;52.188;21.024;2023-03-15T08:53:29;76824.00;;;-141.45;68.35
31403;BME280;18039;52.188;21.024;2023-03-15T08:55:57;76819.94;;;-141.45;67.75
31403;BME280;18039;52.188;21.024;2023-03-15T08:58:25;76811.81;;;-141.45;68.81
31403;BME280;18039;52.188;21.024;2023-03-15T09:00:52;76815.88;;;-141.45;65.96
31403;BME280;18039;52.188;21.024;2023-03-15T09:03:19;76828.03;;;-141.45;65.37
31403;BME280;18039;52.188;21.024;2023-03-15T09:05:48;76848.31;;;-141.45;65.12
31403;BME280;18039;52.188;21.024;2023-03-15T09:08:15;76828.03;;;-141.45;65.22
31403;BME280;18039;52.188;21.024;2023-03-15T09:10:47;76817.91;;;-141.45;66.29
31403;BME280;18039;52.188;21.024;2023-03-15T09:13:14;76779.38;;;-141.45;65.71
31403;BME280;18039;52.188;21.024;2023-03-15T09:15:41;76771.28;;;-141.45;63.66
31403;BME280;18039;52.188;21.024;2023-03-15T09:18:08;76787.50;;;-141.45;63.08
31403;BME280;18039;52.188;21.024;2023-03-15T09:20:36;76811.81;;;-141.45;62.98
31403;BME280;18039;52.188;21.024;2023-03-15T09:23:05;76836.16;;;-141.45;62.11
31403;BME280;18039;52.188;21.024;2023-03-15T09:25:33;76848.31;;;-141.45;62.45
31403;BME280;18039;52.188;21.024;2023-03-15T09:28:04;76838.19;;;-141.45;63.44
31403;BME280;18039;52.188;21.024;2023-03-15T09:30:34;76824.00;;;-141.45;63.33
31403;BME280;18039;52.188;21.024;2023-03-15T09:33:02;76807.78;;;-141.45;64.19
31403;BME280;18039;52.188;21.024;2023-03-15T09:35:29;76795.59;;;-141.45;65.27
31403;BME280;18039;52.188;21.024;2023-03-15T09:37:57;76803.72;;;-141.45;62.91
31403;BME280;18039;52.188;21.024;2023-03-15T09:40:41;76832.09;;;-141.45;64.90
31403;BME280;18039;52.188;21.024;2023-03-15T09:46:38;76787.50;;;-141.45;62.88
31403;BME280;18039;52.188;21.024;2023-03-15T09:49:32;76799.66;;;-141.45;62.85
31403;BME280;18039;52.188;21.024;2023-03-15T09:54:51;76826.00;;;-141.45;65.94
31403;BME280;18039;52.188;21.024;2023-03-15T09:57:27;76783.44;;;-141.45;65.90
31403;BME280;18039;52.188;21.024;2023-03-15T09:59:58;76751.00;;;-141.45;63.45
31403;BME280;18039;52.188;21.024;2023-03-15T10:02:29;76746.97;;;-141.45;63.99
31403;BME280;18039;52.188;21.024;2023-03-15T10:05:11;76787.50;;;-141.45;63.17
31403;BME280;18039;52.188;21.024;2023-03-15T10:07:42;76828.03;;;-141.45;63.81
31403;BME280;18039;52.188;21.024;2023-03-15T10:10:30;76868.59;;;-141.45;64.51
31403;BME280;18039;52.188;21.024;2023-03-15T10:15:43;76836.16;;;-141.45;64.35
31403;BME280;18039;52.188;21.024;2023-03-15T10:18:28;76828.03;;;-141.45;64.12
31403;BME280;18039;52.188;21.024;2023-03-15T10:21:10;76775.34;;;-141.45;64.08
31403;BME280;18039;52.188;21.024;2023-03-15T10:23:45;76787.50;;;-141.45;63.35
31403;BME280;18039;52.188;21.024;2023-03-15T10:26:20;76791.56;;;-141.45;63.22
31403;BME280;18039;52.188;21.024;2023-03-15T10:28:50;76783.44;;;-141.45;63.10
31403;BME280;18039;52.188;21.024;2023-03-15T10:31:24;76791.56;;;-141.45;63.99
31403;BME280;18039;52.188;21.024;2023-03-15T10:34:09;76761.16;;;-141.45;63.09
31403;BME280;18039;52.188;21.024;2023-03-15T10:36:48;76734.78;;;-141.45;62.79
31403;BME280;18039;52.188;21.024;2023-03-15T10:39:15;76698.31;;;-141.45;63.10
31403;BME280;18039;52.188;21.024;2023-03-15T10:41:45;76706.41;;;-141.45;61.59
31403;BME280;18039;52.188;21.024;2023-03-15T10:44:22;76682.09;;;-141.45;61.87
31403;BME280;18039;52.188;21.024;2023-03-15T10:47:11;76645.59;;;-141.45;60.32
31403;BME280;18039;52.188;21.024;2023-03-15T10:49:55;76629.38;;;-141.45;59.53
31403;BME280;18039;52.188;21.024;2023-03-15T10:52:32;76621.28;;;-141.45;58.67
31403;BME280;18039;52.188;21.024;2023-03-15T10:55:10;76609.09;;;-141.45;60.07
31403;BME280;18039;52.188;21.024;2023-03-15T10:57:41;76617.22;;;-141.45;58.08
31403;BME280;18039;52.188;21.024;2023-03-15T11:00:35;76639.53;;;-141.45;57.05
31403;BME280;18039;52.188;21.024;2023-03-15T11:03:15;76665.88;;;-141.45;57.15
31403;BME280;18039;52.188;21.024;2023-03-15T11:05:46;76669.94;;;-141.45;57.38
31403;BME280;18039;52.188;21.024;2023-03-15T11:08:19;76678.03;;;-141.45;58.58
31403;BME280;18039;52.188;21.024;2023-03-15T11:10:54;76673.97;;;-141.45;59.80
31403;BME280;18039;52.188;21.024;2023-03-15T11:13:34;76669.94;;;-141.45;60.78
31403;BME280;18039;52.188;21.024;2023-03-15T11:18:36;76633.44;;;-141.45;60.76
31403;BME280;18039;52.188;21.024;2023-03-15T11:21:07;76625.31;;;-141.45;59.63
31403;BME280;18039;52.188;21.024;2023-03-15T11:23:45;76625.31;;;-141.45;59.09
31403;BME280;18039;52.188;21.024;2023-03-15T11:26:24;76639.53;;;-141.45;60.36
31403;BME280;18039;52.188;21.024;2023-03-15T11:29:24;76629.38;;;-141.45;60.22
31403;BME280;18039;52.188;21.024;2023-03-15T11:31:50;76637.50;;;-141.45;60.23
31403;BME280;18039;52.188;21.024;2023-03-15T11:34:39;76627.34;;;-141.45;60.63
31403;BME280;18039;52.188;21.024;2023-03-15T11:37:41;76619.25;;;-141.45;60.05
31403;BME280;18039;52.188;21.024;2023-03-15T11:40:37;76613.16;;;-141.45;60.20
31403;BME280;18039;52.188;21.024;2023-03-15T11:43:30;76603.03;;;-141.45;59.09
31403;BME280;18039;52.188;21.024;2023-03-15T11:46:16;76588.84;;;-141.45;58.75
31403;BME280;18039;52.188;21.024;2023-03-15T11:48:54;76568.56;;;-141.45;57.61
31403;BME280;18039;52.188;21.024;2023-03-15T11:51:27;76580.72;;;-141.45;54.16
31403;BME280;18039;52.188;21.024;2023-03-15T11:54:13;76588.84;;;-141.45;54.03
31403;BME280;18039;52.188;21.024;2023-03-15T11:56:54;76588.84;;;-141.45;52.45
31403;BME280;18039;52.188;21.024;2023-03-15T11:59:28;76588.84;;;-141.45;53.54
31403;BME280;18039;52.188;21.024;2023-03-15T12:10:28;76625.31;;;-141.45;51.96
31403;BME280;18039;52.188;21.024;2023-03-15T12:12:59;76621.28;;;-141.45;52.47
31403;BME280;18039;52.188;21.024;2023-03-15T12:18:05;76588.84;;;-141.45;54.20
31403;BME280;18039;52.188;21.024;2023-03-15T12:23:42;76554.38;;;-141.45;51.79
31403;BME280;18039;52.188;21.024;2023-03-15T12:26:26;76576.69;;;-141.45;52.92
31403;BME280;18039;52.188;21.024;2023-03-15T12:31:48;76603.03;;;-141.45;52.13
31403;BME280;18039;52.188;21.024;2023-03-15T12:34:34;76665.88;;;-141.45;52.64
31403;BME280;18039;52.188;21.024;2023-03-15T12:37:07;76690.19;;;-141.45;53.12
31403;BME280;18039;52.188;21.024;2023-03-15T12:56:25;76763.16;;;-141.45;54.51
31403;BME280;18039;52.188;21.024;2023-03-15T12:59:02;76755.06;;;-141.45;54.56
31403;BME280;18039;52.188;21.024;2023-03-15T13:01:31;76734.78;;;-141.45;54.79
31403;BME280;18039;52.188;21.024;2023-03-15T13:04:00;76722.63;;;-141.45;55.00
31403;BME280;18039;52.188;21.024;2023-03-15T13:12:07;76718.56;;;-141.45;54.47
31403;BME280;18039;52.188;21.024;2023-03-15T13:14:45;76742.91;;;-141.45;55.55
31403;BME280;18039;52.188;21.024;2023-03-15T13:17:40;76722.63;;;-141.45;54.23
31403;BME280;18039;52.188;21.024;2023-03-15T13:20:38;76738.84;;;-141.45;53.64
31403;BME280;18039;52.188;21.024;2023-03-15T13:23:29;76742.91;;;-141.45;53.19
31403;BME280;18039;52.188;21.024;2023-03-15T13:29:14;76732.75;;;-141.45;54.39
31403;BME280;18039;52.188;21.024;2023-03-15T13:31:44;76736.81;;;-141.45;52.96
31403;BME280;18039;52.188;21.024;2023-03-15T13:34:16;76714.53;;;-141.45;52.55
31403;BME280;18039;52.188;21.024;2023-03-15T13:39:34;76706.41;;;-141.45;50.42
31403;BME280;18039;52.188;21.024;2023-03-15T13:42:02;76706.41;;;-141.45;51.41
31403;BME280;18039;52.188;21.024;2023-03-15T13:44:31;76714.53;;;-141.45;51.51
31403;BME280;18039;52.188;21.024;2023-03-15T13:46:59;76710.47;;;-141.45;52.08
31403;BME280;18039;52.188;21.024;2023-03-15T13:49:33;76738.84;;;-141.45;53.50
31403;BME280;18039;52.188;21.024;2023-03-15T13:52:03;76759.13;;;-141.45;53.97
31403;BME280;18039;52.188;21.024;2023-03-15T13:54:40;76755.06;;;-141.45;53.43
31403;BME280;18039;52.188;21.024;2023-03-15T13:57:20;76751.00;;;-141.45;52.75
31403;BME280;18039;52.188;21.024;2023-03-15T13:59:51;76759.13;;;-141.45;51.93
31403;BME280;18039;52.188;21.024;2023-03-15T14:02:22;76783.44;;;-141.45;50.75
31403;BME280;18039;52.188;21.024;2023-03-15T14:05:00;76797.63;;;-141.45;51.97